Time;durP1;ratioP1;P1;durP2;ratioP2;P2;SDS_P1;SDS_P2;PMS_P1;PMS_P2;Temp;Humidity;BMP_temperature;BMP_pressure;BME280_temperature;BME280_humidity;BME280_pressure;Samples;Min_cycle;Max_cycle;Signal;HPM_P1;HPM_P2
2022/10/22 00:02:08;;;;;;;6.27;2.67;;;12.80;99.90;;;;;;6255583;22;20348;-89
2022/10/22 00:04:34;;;;;;;5.17;2.07;;;12.80;99.90;;;;;;6308474;22;20023;-88
2022/10/22 00:07:00;;;;;;;4.33;2.13;;;12.80;99.90;;;;;;6256419;22;20254;-94
2022/10/22 00:09:26;;;;;;;5.35;2.50;;;12.80;99.90;;;;;;6296876;22;20098;-88
2022/10/22 00:11:52;;;;;;;8.35;2.50;;;12.70;99.90;;;;;;6267046;22;20019;-89
2022/10/22 00:14:19;;;;;;;5.60;2.63;;;12.70;99.90;;;;;;6256138;22;20007;-91
2022/10/22 00:16:45;;;;;;;5.97;2.72;;;12.70;99.90;;;;;;6308291;22;20492;-88
2022/10/22 00:19:12;;;;;;;5.20;2.25;;;12.70;99.90;;;;;;6254940;22;20019;-91
2022/10/22 00:21:38;;;;;;;5.28;2.35;;;12.70;99.90;;;;;;6280924;22;20478;-87
2022/10/22 00:24:04;;;;;;;5.10;1.85;;;12.70;99.90;;;;;;6255321;22;20015;-90
2022/10/22 00:26:29;;;;;;;5.35;2.15;;;12.70;99.90;;;;;;6280590;22;20069;-88
2022/10/22 00:28:55;;;;;;;6.83;2.10;;;12.70;99.90;;;;;;6230128;22;20022;-92
2022/10/22 00:31:21;;;;;;;6.03;2.40;;;12.70;99.90;;;;;;6308126;22;20026;-92
2022/10/22 00:33:47;;;;;;;5.38;2.15;;;12.70;99.90;;;;;;6255314;22;20727;-90
2022/10/22 00:36:13;;;;;;;5.90;2.67;;;12.80;99.90;;;;;;6280754;22;20030;-88
2022/10/22 00:38:39;;;;;;;5.40;2.60;;;12.90;99.90;;;;;;6280555;22;20347;-88
2022/10/22 00:41:05;;;;;;;5.35;2.70;;;12.90;99.90;;;;;;6255177;22;20019;-88
2022/10/22 00:43:31;;;;;;;6.55;2.85;;;13.00;99.90;;;;;;6266228;22;20015;-87
2022/10/22 00:45:57;;;;;;;5.40;2.50;;;13.00;99.90;;;;;;6269322;22;20070;-88
2022/10/22 00:48:29;;;;;;;5.63;2.67;;;13.10;99.90;;;;;;6310875;22;20018;-93
2022/10/22 00:51:04;;;;;;;5.72;2.70;;;13.10;99.90;;;;;;6280622;22;20250;-90
2022/10/22 00:53:38;;;;;;;5.57;2.10;;;13.20;99.90;;;;;;6280784;22;20105;-92
2022/10/22 00:56:04;;;;;;;5.22;2.60;;;13.20;99.90;;;;;;6255045;22;20440;-94
2022/10/22 00:58:33;;;;;;;;;;;13.20;99.90;;;;;;6255451;22;20012;-92
2022/10/22 01:00:59;;;;;;;3.80;1.58;;;13.30;99.90;;;;;;6254651;22;19985;-93
2022/10/22 01:03:26;;;;;;;5.03;2.40;;;13.20;99.90;;;;;;6255085;22;20444;-93
2022/10/22 01:06:01;;;;;;;4.97;2.13;;;13.20;99.90;;;;;;6255272;22;20022;-88
2022/10/22 01:09:05;;;;;;;6.93;2.53;;;13.20;99.90;;;;;;6254651;22;20497;-88
2022/10/22 01:11:48;;;;;;;5.35;2.30;;;13.20;99.90;;;;;;6280312;22;20389;-87
2022/10/22 01:14:39;;;;;;;4.65;2.20;;;13.10;99.90;;;;;;6254625;22;20096;-92
2022/10/22 01:17:37;;;;;;;5.50;2.17;;;13.10;99.90;;;;;;6280140;22;20015;-92
2022/10/22 01:20:21;;;;;;;6.93;2.42;;;13.10;99.90;;;;;;6280435;22;20023;-90
2022/10/22 01:22:50;;;;;;;5.07;2.50;;;13.10;99.90;;;;;;6254929;22;20011;-90
2022/10/22 01:29:50;;;;;;;7.13;3.00;;;13.10;99.90;;;;;;6308437;22;20368;-93
2022/10/22 01:32:24;;;;;;;13.25;3.50;;;13.10;99.90;;;;;;6104514;23;20151;-92
2022/10/22 01:34:58;;;;;;;5.25;2.50;;;13.10;99.90;;;;;;6232114;22;20089;-92
2022/10/22 01:37:27;;;;;;;6.00;2.80;;;13.10;99.90;;;;;;6255120;22;20145;-90
2022/10/22 01:40:10;;;;;;;5.65;2.38;;;13.10;99.90;;;;;;6255140;22;20460;-95
2022/10/22 01:42:36;;;;;;;4.93;2.20;;;13.10;99.90;;;;;;6254601;22;20145;-91
2022/10/22 01:45:09;;;;;;;6.38;2.95;;;13.10;99.90;;;;;;6254987;22;20015;-89
2022/10/22 01:48:04;;;;;;;4.97;2.13;;;13.10;99.90;;;;;;6231221;22;20066;-96
2022/10/22 01:50:29;;;;;;;5.68;2.55;;;13.20;99.90;;;;;;6254758;22;20047;-92
2022/10/22 01:53:27;;;;;;;6.23;2.70;;;13.10;99.90;;;;;;6255299;22;20386;-91
2022/10/22 01:56:04;;;;;;;5.35;2.30;;;13.10;99.90;;;;;;6254777;22;20023;-91
2022/10/22 01:58:41;;;;;;;5.82;2.55;;;13.10;99.90;;;;;;6254963;22;20095;-95
2022/10/22 02:01:42;;;;;;;4.35;2.10;;;13.10;99.90;;;;;;6256882;22;20019;-91
2022/10/22 02:04:28;;;;;;;5.78;2.38;;;13.00;99.90;;;;;;6249493;22;20073;-90
2022/10/22 02:06:59;;;;;;;5.18;2.55;;;13.00;99.90;;;;;;6256661;22;20090;-90
2022/10/22 02:09:42;;;;;;;4.30;2.15;;;13.00;99.90;;;;;;6257567;22;20069;-93
2022/10/22 02:12:09;;;;;;;4.60;2.08;;;12.90;99.90;;;;;;6284847;22;20015;-92
2022/10/22 02:14:38;;;;;;;4.05;1.92;;;12.90;99.90;;;;;;6256706;22;20067;-93
2022/10/22 02:17:08;;;;;;;5.00;1.95;;;12.90;99.90;;;;;;6256554;22;20015;-96
2022/10/22 02:19:54;;;;;;;4.55;1.90;;;12.90;99.90;;;;;;6256350;22;20076;-96
2022/10/22 02:22:20;;;;;;;6.18;2.20;;;12.90;99.90;;;;;;6281950;22;20015;-96
2022/10/22 02:24:48;;;;;;;5.82;2.50;;;12.80;99.90;;;;;;6231104;22;20019;-94
2022/10/22 02:27:31;;;;;;;4.80;2.40;;;12.80;99.90;;;;;;6281958;22;20089;-92
2022/10/22 02:30:09;;;;;;;4.32;2.05;;;12.80;99.90;;;;;;6256402;22;20026;-90
2022/10/22 02:32:46;;;;;;;5.57;1.90;;;12.80;99.90;;;;;;6256554;22;20050;-92
2022/10/22 02:35:13;;;;;;;;;;;12.70;99.90;;;;;;6257043;22;20015;-92
2022/10/22 02:37:40;;;;;;;4.60;2.05;;;12.70;99.90;;;;;;6281743;22;19993;-90
2022/10/22 02:40:07;;;;;;;5.15;2.25;;;12.70;99.90;;;;;;6281898;22;20015;-94
2022/10/22 02:42:35;;;;;;;6.18;2.13;;;12.70;99.90;;;;;;6256796;22;20041;-91
2022/10/22 02:45:01;;;;;;;4.47;2.10;;;12.70;99.90;;;;;;6257295;22;20091;-95
2022/10/22 02:47:27;;;;;;;4.68;2.35;;;12.60;99.90;;;;;;6265130;22;20057;-90
2022/10/22 02:49:53;;;;;;;5.30;2.07;;;12.60;99.90;;;;;;6302684;22;20019;-95
2022/10/22 02:52:18;;;;;;;4.60;1.90;;;12.60;99.90;;;;;;6265070;22;20022;-91
2022/10/22 02:54:44;;;;;;;4.63;2.20;;;12.60;99.90;;;;;;6231367;22;20025;-95
2022/10/22 02:57:10;;;;;;;4.73;2.00;;;12.60;99.90;;;;;;6256346;22;20346;-92
2022/10/22 02:59:35;;;;;;;6.32;2.00;;;12.50;99.90;;;;;;6255925;22;20410;-91
2022/10/22 03:02:01;;;;;;;6.67;2.00;;;12.50;99.90;;;;;;6281838;22;20018;-92
2022/10/22 03:04:27;;;;;;;4.75;1.92;;;12.50;99.90;;;;;;6281408;22;20403;-91
2022/10/22 03:06:53;;;;;;;4.30;1.92;;;12.50;99.90;;;;;;6255968;22;20015;-96
2022/10/22 03:09:19;;;;;;;5.00;2.05;;;12.50;99.90;;;;;;6256454;22;20094;-96
2022/10/22 03:11:45;;;;;;;4.77;2.20;;;12.50;99.90;;;;;;6230135;22;20050;-90
2022/10/22 03:14:11;;;;;;;3.80;1.63;;;12.60;99.90;;;;;;6256496;22;20257;-92
2022/10/22 03:16:37;;;;;;;3.88;1.63;;;12.60;99.90;;;;;;6255794;22;20015;-92
2022/10/22 03:19:03;;;;;;;9.88;2.28;;;12.60;99.90;;;;;;6256088;22;20117;-91
2022/10/22 03:21:38;;;;;;;4.35;1.88;;;12.60;99.90;;;;;;6230576;22;20022;-90
2022/10/22 03:24:10;;;;;;;6.25;2.40;;;12.60;99.90;;;;;;6281619;22;20019;-91
2022/10/22 03:26:37;;;;;;;3.88;1.80;;;12.70;99.90;;;;;;6281467;22;20011;-90
2022/10/22 03:29:03;;;;;;;4.75;1.70;;;12.70;99.90;;;;;;6281498;22;20021;-91
2022/10/22 03:31:29;;;;;;;4.85;2.10;;;12.60;99.90;;;;;;6281266;22;20019;-91
2022/10/22 03:33:55;;;;;;;4.60;1.90;;;12.60;99.90;;;;;;6255876;22;20065;-91
2022/10/22 03:36:21;;;;;;;4.43;2.03;;;12.70;99.90;;;;;;6230495;22;20031;-93
2022/10/22 03:38:47;;;;;;;4.57;2.30;;;12.60;99.90;;;;;;6255408;22;20057;-92
2022/10/22 03:41:13;;;;;;;7.97;2.42;;;12.60;99.90;;;;;;6255657;22;20245;-93
2022/10/22 03:43:39;;;;;;;5.70;2.03;;;12.60;99.90;;;;;;6281369;22;20018;-96
2022/10/22 03:46:06;;;;;;;4.32;2.35;;;12.70;99.90;;;;;;6255617;22;20022;-95
2022/10/22 03:48:31;;;;;;;5.97;2.20;;;12.70;99.90;;;;;;6255753;22;20015;-93
2022/10/22 03:50:57;;;;;;;3.90;2.00;;;12.60;99.90;;;;;;6255971;22;20022;-96
2022/10/22 03:53:23;;;;;;;6.23;2.10;;;12.60;99.90;;;;;;6281457;22;20242;-95
2022/10/22 03:55:48;;;;;;;6.23;2.17;;;12.60;99.90;;;;;;6255566;22;20518;-92
2022/10/22 03:58:14;;;;;;;5.63;2.37;;;12.60;99.90;;;;;;6255536;22;20270;-91
2022/10/22 04:00:40;;;;;;;4.47;1.90;;;12.60;99.90;;;;;;6281154;22;20015;-95
2022/10/22 04:03:06;;;;;;;6.03;2.50;;;12.60;99.90;;;;;;6281465;22;20050;-94
2022/10/22 04:05:33;;;;;;;4.45;1.98;;;12.60;99.90;;;;;;6281420;22;20085;-93
2022/10/22 04:07:59;;;;;;;6.18;2.25;;;12.60;99.90;;;;;;6255054;22;20470;-92
2022/10/22 04:10:25;;;;;;;5.78;2.30;;;12.50;99.90;;;;;;6255623;22;20145;-95
2022/10/22 04:12:50;;;;;;;4.80;2.42;;;12.40;99.90;;;;;;6255438;22;20065;-92
2022/10/22 04:15:16;;;;;;;4.93;2.13;;;12.50;99.90;;;;;;6255320;22;20570;-91
2022/10/22 04:17:42;;;;;;;3.90;2.05;;;12.40;99.90;;;;;;6255348;22;20261;-90
2022/10/22 04:20:09;;;;;;;6.00;2.38;;;12.50;99.90;;;;;;6204887;22;20452;-91
2022/10/22 04:22:35;;;;;;;5.30;2.50;;;12.40;99.90;;;;;;6254934;22;20061;-93
2022/10/22 04:25:02;;;;;;;6.60;2.60;;;12.50;99.90;;;;;;6255318;22;20452;-91
2022/10/22 04:27:34;;;;;;;5.22;2.03;;;12.50;99.90;;;;;;6255364;22;20011;-90
2022/10/22 04:30:00;;;;;;;6.80;2.33;;;12.50;99.90;;;;;;6255429;22;20446;-92
2022/10/22 04:32:27;;;;;;;5.20;2.60;;;12.50;99.90;;;;;;6255392;22;20011;-90
2022/10/22 04:34:53;;;;;;;7.82;2.60;;;12.50;99.90;;;;;;6255244;22;20015;-88
2022/10/22 04:37:19;;;;;;;6.20;2.80;;;12.50;99.90;;;;;;6255356;22;20015;-88
2022/10/22 04:39:45;;;;;;;7.30;2.47;;;12.50;99.90;;;;;;6280792;22;20725;-90
2022/10/22 04:42:11;;;;;;;6.43;2.73;;;12.50;99.90;;;;;;6255289;22;20064;-92
2022/10/22 04:44:37;;;;;;;7.55;2.70;;;12.50;99.90;;;;;;6255347;22;20261;-93
2022/10/22 04:47:03;;;;;;;5.78;2.38;;;12.50;99.90;;;;;;6255515;22;20085;-91
2022/10/22 04:49:30;;;;;;;5.88;2.78;;;12.50;99.90;;;;;;6231125;22;20011;-89
2022/10/22 04:51:55;;;;;;;5.95;2.63;;;12.50;99.90;;;;;;6284803;22;20019;-86
2022/10/22 04:54:21;;;;;;;5.57;2.70;;;12.50;99.90;;;;;;6269961;22;20011;-91
2022/10/22 04:56:47;;;;;;;6.67;2.83;;;12.50;99.90;;;;;;6260236;22;20026;-87
2022/10/22 04:59:12;;;;;;;4.63;2.23;;;12.50;99.90;;;;;;6280359;22;20019;-87
2022/10/22 05:01:41;;;;;;;5.87;2.57;;;12.50;99.90;;;;;;6255299;22;20250;-91
2022/10/22 05:04:09;;;;;;;4.63;2.50;;;12.50;99.90;;;;;;6254972;22;20250;-89
2022/10/22 05:06:36;;;;;;;6.18;2.85;;;12.50;99.90;;;;;;6255003;22;20022;-90
2022/10/22 05:09:09;;;;;;;6.78;2.80;;;12.50;99.90;;;;;;6254887;22;20051;-92
2022/10/22 05:11:37;;;;;;;5.53;2.70;;;12.50;99.90;;;;;;6255051;22;20030;-88
2022/10/22 05:14:05;;;;;;;6.00;2.53;;;12.50;99.90;;;;;;6280554;22;20094;-90
2022/10/22 05:16:32;;;;;;;6.80;2.88;;;12.50;99.90;;;;;;6254928;22;20018;-88
2022/10/22 05:19:00;;;;;;;6.55;2.95;;;12.50;99.90;;;;;;6254889;22;20411;-90
2022/10/22 05:21:26;;;;;;;7.03;2.90;;;12.50;99.90;;;;;;6255051;22;20047;-89
2022/10/22 05:23:53;;;;;;;;;;;12.50;99.90;;;;;;6255791;22;20098;-94
2022/10/22 05:26:20;;;;;;;6.13;3.10;;;12.50;99.90;;;;;;6254900;22;19915;-90
2022/10/22 05:28:47;;;;;;;5.90;2.47;;;12.50;99.90;;;;;;6262995;22;20241;-89
2022/10/22 05:31:14;;;;;;;7.63;2.88;;;12.50;99.90;;;;;;6260375;22;20011;-90
2022/10/22 05:33:41;;;;;;;5.93;2.80;;;12.50;99.90;;;;;;6254850;22;20027;-91
2022/10/22 05:36:08;;;;;;;6.28;2.83;;;12.50;99.90;;;;;;6231536;22;20012;-92
2022/10/22 05:38:34;;;;;;;5.28;2.63;;;12.50;99.90;;;;;;6309488;22;20019;-88
2022/10/22 05:41:12;;;;;;;5.47;2.63;;;12.50;99.90;;;;;;6256739;22;20046;-91
2022/10/22 05:43:38;;;;;;;5.70;2.60;;;12.50;99.90;;;;;;6282399;22;20026;-93
2022/10/22 05:46:07;;;;;;;6.18;2.90;;;12.50;99.90;;;;;;6256966;22;20015;-89
2022/10/22 05:48:33;;;;;;;5.40;2.22;;;12.50;99.90;;;;;;6282345;22;20047;-92
2022/10/22 05:51:04;;;;;;;5.10;2.28;;;12.40;99.90;;;;;;6256649;22;20510;-89
2022/10/22 05:53:34;;;;;;;6.93;3.08;;;12.40;99.90;;;;;;6256777;22;20023;-90
2022/10/22 05:56:06;;;;;;;7.75;3.08;;;12.40;99.90;;;;;;6256756;22;20011;-91
2022/10/22 05:58:32;;;;;;;6.30;2.92;;;12.30;99.90;;;;;;6256503;22;20015;-89
2022/10/22 06:01:06;;;;;;;6.43;3.20;;;12.30;99.90;;;;;;6282364;22;20022;-88
2022/10/22 06:03:52;;;;;;;6.05;2.63;;;12.30;99.90;;;;;;6231828;22;20094;-88
2022/10/22 06:06:39;;;;;;;6.53;2.97;;;12.30;99.90;;;;;;6231026;22;20022;-88
2022/10/22 06:09:18;;;;;;;6.40;2.97;;;12.30;99.90;;;;;;6256490;22;20015;-92
2022/10/22 06:11:45;;;;;;;6.70;3.05;;;12.30;99.90;;;;;;6256586;22;20015;-88
2022/10/22 06:14:11;;;;;;;6.05;2.67;;;12.30;99.90;;;;;;6256309;22;20103;-95
2022/10/22 06:16:37;;;;;;;5.22;2.38;;;12.30;99.90;;;;;;6256365;22;20440;-94
2022/10/22 06:23:04;;;;;;;7.57;3.05;;;12.30;99.90;;;;;;6309735;22;20063;-91
2022/10/22 06:25:29;;;;;;;5.82;3.00;;;12.40;99.90;;;;;;6231045;22;20053;-89
2022/10/22 06:27:55;;;;;;;5.87;2.60;;;12.40;99.90;;;;;;6206225;22;20016;-89
2022/10/22 06:30:21;;;;;;;6.77;3.13;;;12.40;99.90;;;;;;6206092;22;20011;-94
2022/10/22 06:32:46;;;;;;;5.10;2.57;;;12.50;99.90;;;;;;6282192;22;20019;-90
2022/10/22 06:35:21;;;;;;;6.63;3.10;;;12.50;99.90;;;;;;6231550;22;20090;-95
2022/10/22 06:37:47;;;;;;;7.18;3.10;;;12.50;99.90;;;;;;6256537;22;20098;-92
2022/10/22 06:40:13;;;;;;;6.68;3.40;;;12.60;99.90;;;;;;6256771;22;20494;-95
2022/10/22 06:42:39;;;;;;;6.13;3.03;;;12.60;99.90;;;;;;6256665;22;20011;-92
2022/10/22 06:45:05;;;;;;;5.87;3.20;;;12.70;99.90;;;;;;6205964;22;20091;-94
2022/10/22 06:47:32;;;;;;;6.47;2.47;;;12.70;99.90;;;;;;6230514;22;20094;-92
2022/10/22 06:49:57;;;;;;;6.15;3.00;;;12.70;99.90;;;;;;6256315;22;20076;-90
2022/10/22 06:52:23;;;;;;;5.80;3.23;;;12.70;99.90;;;;;;6256540;22;20070;-89
2022/10/22 06:54:49;;;;;;;6.68;2.92;;;12.70;99.90;;;;;;6258195;22;20011;-90
2022/10/22 06:57:15;;;;;;;7.20;2.77;;;12.70;99.90;;;;;;6265276;22;20049;-87
2022/10/22 06:59:41;;;;;;;5.70;2.60;;;12.80;99.90;;;;;;6207662;22;20319;-91
2022/10/22 07:02:11;;;;;;;6.75;2.78;;;12.80;99.90;;;;;;6230901;22;20019;-94
2022/10/22 07:04:36;;;;;;;8.10;3.22;;;12.80;99.90;;;;;;6281977;22;20015;-89
2022/10/22 07:07:02;;;;;;;9.83;3.00;;;12.90;99.90;;;;;;6256125;22;20015;-89
2022/10/22 07:09:28;;;;;;;8.00;3.63;;;12.90;99.90;;;;;;6255996;22;20046;-88
2022/10/22 07:11:53;;;;;;;6.77;3.23;;;13.00;99.90;;;;;;6255815;22;20055;-89
2022/10/22 07:14:19;;;;;;;5.87;3.10;;;13.00;99.90;;;;;;6231061;22;20234;-95
2022/10/22 07:16:45;;;;;;;7.03;2.97;;;13.00;99.90;;;;;;6206038;22;20034;-94
2022/10/22 07:19:12;;;;;;;6.63;2.78;;;13.10;99.90;;;;;;6231365;22;20193;-95
2022/10/22 07:21:38;;;;;;;;;;;13.10;99.90;;;;;;6257012;22;20015;-89
2022/10/22 07:24:04;;;;;;;7.18;3.03;;;13.20;99.90;;;;;;6230638;22;19946;-90
2022/10/22 07:26:31;;;;;;;7.20;3.20;;;13.20;99.90;;;;;;6255874;22;20468;-88
2022/10/22 07:28:59;;;;;;;8.23;2.97;;;13.30;99.90;;;;;;6231941;22;20047;-90
2022/10/22 07:31:24;;;;;;;10.10;3.00;;;13.30;99.90;;;;;;6292541;22;20098;-89
2022/10/22 07:33:50;;;;;;;8.73;2.85;;;13.30;99.90;;;;;;6292185;22;20022;-89
2022/10/22 07:36:16;;;;;;;6.10;2.78;;;13.30;99.90;;;;;;6256869;22;20029;-89
2022/10/22 07:38:44;;;;;;;6.88;3.30;;;13.40;99.90;;;;;;6255875;22;20076;-90
2022/10/22 07:41:10;;;;;;;6.78;2.90;;;13.40;99.90;;;;;;6281316;22;20091;-95
2022/10/22 07:43:36;;;;;;;5.85;2.72;;;13.40;99.90;;;;;;6256591;22;20090;-92
2022/10/22 07:46:02;;;;;;;5.87;2.67;;;13.50;99.90;;;;;;6255232;22;20479;-93
2022/10/22 07:48:28;;;;;;;6.93;2.63;;;13.50;99.90;;;;;;6280684;22;20588;-93
2022/10/22 07:50:54;;;;;;;5.37;2.30;;;13.50;99.90;;;;;;6230255;22;20011;-88
2022/10/22 07:53:20;;;;;;;6.90;3.10;;;13.50;99.90;;;;;;6281158;22;20260;-88
2022/10/22 07:55:50;;;;;;;7.28;2.67;;;13.50;99.90;;;;;;6280872;22;20336;-90
2022/10/22 07:58:20;;;;;;;5.95;2.20;;;13.50;99.90;;;;;;6255363;22;20352;-94
2022/10/22 08:01:11;;;;;;;4.53;2.20;;;13.60;99.90;;;;;;6256130;22;20019;-93
2022/10/22 08:03:37;;;;;;;6.38;2.25;;;13.60;99.90;;;;;;6255737;22;20057;-93
2022/10/22 08:06:03;;;;;;;6.00;2.40;;;13.60;99.90;;;;;;6255402;22;20015;-89
2022/10/22 08:08:29;;;;;;;5.00;2.42;;;13.70;99.90;;;;;;6255592;22;20038;-89
2022/10/22 08:10:57;;;;;;;7.10;2.67;;;13.70;99.90;;;;;;6255628;22;20448;-94
2022/10/22 08:13:29;;;;;;;5.05;2.00;;;13.70;99.90;;;;;;6260362;22;20094;-93
2022/10/22 08:15:58;;;;;;;5.22;2.20;;;13.80;99.90;;;;;;6264759;22;20364;-92
2022/10/22 08:18:49;;;;;;;5.13;2.15;;;13.80;99.90;;;;;;6258065;22;20019;-90
2022/10/22 08:21:24;;;;;;;6.15;2.50;;;13.80;99.90;;;;;;6254280;22;20015;-89
2022/10/22 08:23:49;;;;;;;7.00;2.33;;;13.80;99.90;;;;;;6229402;22;20050;-93
2022/10/22 08:26:15;;;;;;;5.65;2.22;;;13.80;99.90;;;;;;6255992;22;20494;-92
2022/10/22 08:29:11;;;;;;;5.53;2.07;;;13.90;99.90;;;;;;6255877;22;20090;-93
2022/10/22 08:31:40;;;;;;;8.02;2.75;;;13.80;99.90;;;;;;6257590;22;20260;-91
2022/10/22 08:34:07;;;;;;;4.80;2.13;;;13.90;99.90;;;;;;6256415;22;20043;-96
2022/10/22 08:36:33;;;;;;;7.07;2.13;;;13.90;99.90;;;;;;6231546;22;20034;-95
2022/10/22 08:39:08;;;;;;;8.98;2.20;;;13.90;99.90;;;;;;6231493;22;20015;-93
2022/10/22 08:41:58;;;;;;;5.50;2.20;;;14.00;99.90;;;;;;6256336;22;20055;-95
2022/10/22 08:44:49;;;;;;;5.78;2.10;;;14.00;99.90;;;;;;6185706;22;20037;-93
2022/10/22 08:47:36;;;;;;;6.90;2.10;;;14.00;99.90;;;;;;6256798;22;20007;-91
2022/10/22 08:50:02;;;;;;;5.53;2.30;;;14.10;99.90;;;;;;6256173;22;20027;-93
2022/10/22 08:55:03;;;;;;;6.75;2.17;;;14.20;99.90;;;;;;6270726;22;20031;-95
2022/10/22 08:57:59;;;;;;;8.48;2.50;;;14.20;99.90;;;;;;6169119;23;20031;-94
2022/10/22 09:00:36;;;;;;;6.40;1.95;;;14.30;99.90;;;;;;6195483;23;20020;-92
2022/10/22 09:13:56;;;;;;;4.13;1.85;;;14.50;99.90;;;;;;6252002;22;20027;-91
2022/10/22 09:21:56;;;;;;;3.95;1.73;;;14.70;99.90;;;;;;6311269;22;20023;-94
2022/10/22 09:25:09;;;;;;;4.88;2.13;;;14.80;99.90;;;;;;6259498;22;20045;-88
2022/10/22 09:27:57;;;;;;;4.70;1.80;;;14.90;99.90;;;;;;6198189;22;20038;-89
2022/10/22 09:30:25;;;;;;;5.80;1.75;;;14.90;99.90;;;;;;6285677;22;20054;-91
2022/10/22 09:33:14;;;;;;;4.25;1.48;;;15.00;99.90;;;;;;6259247;22;20019;-93
2022/10/22 09:36:06;;;;;;;4.72;1.88;;;15.00;99.90;;;;;;6284209;22;20030;-92
2022/10/22 09:51:48;;;;;;;5.55;1.75;;;15.40;99.90;;;;;;6278098;22;20031;-94
2022/10/22 09:54:51;;;;;;;5.07;1.75;;;15.40;99.90;;;;;;6227824;22;20529;-95
2022/10/22 14:22:52;;;;;;;3.65;0.60;;;16.30;99.90;;;;;;6283788;22;20051;-95
2022/10/22 14:25:21;;;;;;;3.03;0.80;;;16.30;99.90;;;;;;6257521;22;20058;-93
2022/10/22 14:27:49;;;;;;;3.33;0.88;;;16.40;99.90;;;;;;6264781;22;20009;-91
2022/10/22 14:30:22;;;;;;;2.60;0.65;;;16.40;99.90;;;;;;6285093;22;20082;-93
2022/10/22 14:33:22;;;;;;;5.20;0.77;;;16.50;99.90;;;;;;6287456;22;20459;-93
2022/10/22 14:35:49;;;;;;;2.58;0.98;;;16.50;99.90;;;;;;6258000;22;20336;-94
2022/10/22 14:38:15;;;;;;;2.67;0.90;;;16.50;99.90;;;;;;6257648;22;20015;-93
2022/10/22 14:40:41;;;;;;;1.70;0.50;;;16.50;99.90;;;;;;6257657;22;20011;-94
2022/10/22 14:43:13;;;;;;;;;;;16.50;99.90;;;;;;6257550;22;20181;-95
2022/10/22 14:45:38;;;;;;;3.30;0.60;;;16.50;99.90;;;;;;6283548;22;19921;-92
2022/10/22 14:48:05;;;;;;;1.98;0.95;;;16.50;99.90;;;;;;6232566;22;20046;-93
2022/10/22 14:50:31;;;;;;;3.15;0.50;;;16.50;99.90;;;;;;6258186;22;20026;-95
2022/10/22 14:52:58;;;;;;;2.35;0.65;;;16.40;99.90;;;;;;6257462;22;20015;-96
2022/10/22 15:18:22;;;;;;;3.65;0.30;;;16.20;99.90;;;;;;6242802;23;20438;-96
2022/10/22 15:21:04;;;;;;;1.75;0.50;;;16.10;99.90;;;;;;6220038;23;20024;-94
2022/10/22 15:23:33;;;;;;;2.20;0.60;;;16.10;99.90;;;;;;6196236;23;20023;-93
2022/10/22 15:59:39;;;;;;;1.63;0.50;;;15.60;99.90;;;;;;6277474;22;20028;-93
2022/10/22 16:02:06;;;;;;;1.52;0.38;;;15.60;99.90;;;;;;6225678;22;20065;-96
2022/10/22 16:04:31;;;;;;;;;;;15.50;99.90;;;;;;6227162;22;20387;-93
2022/10/22 16:06:58;;;;;;;2.78;0.60;;;15.50;99.90;;;;;;6225802;22;19949;-93
2022/10/22 16:09:26;;;;;;;4.95;0.60;;;15.50;99.90;;;;;;6225865;22;20016;-94
2022/10/22 16:11:53;;;;;;;1.70;0.52;;;15.40;99.90;;;;;;6226206;22;20020;-94
2022/10/22 16:14:20;;;;;;;5.75;0.82;;;15.40;99.90;;;;;;6200892;22;20069;-93
2022/10/22 16:16:49;;;;;;;2.20;0.50;;;15.40;99.90;;;;;;6225559;22;20026;-95
2022/10/22 16:19:19;;;;;;;3.67;0.77;;;15.30;99.90;;;;;;6226243;22;20094;-94
2022/10/22 16:21:45;;;;;;;2.88;0.70;;;15.30;99.90;;;;;;6200830;22;20038;-94
2022/10/22 16:24:11;;;;;;;2.60;0.45;;;15.30;99.90;;;;;;6200994;22;20142;-94
2022/10/22 16:26:37;;;;;;;;;;;15.20;99.90;;;;;;6201180;22;20023;-94
2022/10/22 16:29:04;;;;;;;3.25;0.70;;;15.20;99.90;;;;;;6225550;22;19915;-94
2022/10/22 16:31:30;;;;;;;;;;;15.10;99.90;;;;;;6201239;22;20433;-93
2022/10/22 16:33:57;;;;;;;3.95;1.13;;;15.10;99.90;;;;;;6225509;22;19991;-93
2022/10/22 16:36:22;;;;;;;2.78;0.55;;;15.10;99.90;;;;;;6225726;22;20011;-95
2022/10/22 16:38:48;;;;;;;2.13;0.60;;;15.00;99.90;;;;;;6225191;22;20019;-92
2022/10/22 16:41:18;;;;;;;;;;;15.10;99.90;;;;;;6200039;22;20016;-95
2022/10/22 16:43:47;;;;;;;2.67;0.70;;;15.00;99.90;;;;;;6225507;22;19915;-92
2022/10/22 16:46:14;;;;;;;5.25;0.93;;;15.00;99.90;;;;;;6225896;22;20022;-93
2022/10/22 16:48:45;;;;;;;4.03;0.70;;;14.90;99.90;;;;;;6250980;22;20019;-94
2022/10/22 16:51:13;;;;;;;2.75;0.90;;;14.90;99.90;;;;;;6225353;22;20019;-93
2022/10/22 16:53:39;;;;;;;5.18;0.60;;;14.90;99.90;;;;;;6225333;22;20023;-94
2022/10/22 17:20:06;;;;;;;5.43;1.38;;;14.70;99.90;;;;;;6282777;22;20027;-93
2022/10/22 17:22:32;;;;;;;7.15;0.98;;;14.70;99.90;;;;;;6255760;22;20042;-92
2022/10/22 17:49:26;;;;;;;6.68;1.10;;;14.30;99.90;;;;;;6298472;22;20018;-91
2022/10/22 17:51:52;;;;;;;6.57;1.33;;;14.30;99.90;;;;;;6253281;22;20019;-93
2022/10/22 17:54:17;;;;;;;3.63;0.93;;;14.40;99.90;;;;;;6210416;22;20022;-95
2022/10/22 17:56:43;;;;;;;4.07;0.88;;;14.30;99.90;;;;;;6227072;22;20095;-94
2022/10/22 17:59:14;;;;;;;4.63;0.90;;;14.40;99.90;;;;;;6226935;22;20101;-92
2022/10/22 18:01:44;;;;;;;5.55;1.00;;;14.30;99.90;;;;;;6227173;22;20015;-94
2022/10/22 18:04:13;;;;;;;5.18;1.65;;;14.30;99.90;;;;;;6227010;22;20012;-93
2022/10/22 18:06:39;;;;;;;6.22;1.63;;;14.30;99.90;;;;;;6226934;22;20050;-93
2022/10/22 18:09:07;;;;;;;5.32;1.25;;;14.30;99.90;;;;;;6226772;22;20015;-94
2022/10/22 18:11:35;;;;;;;7.72;1.13;;;14.20;99.90;;;;;;6226838;22;20417;-93
2022/10/22 18:14:01;;;;;;;4.03;1.08;;;14.20;99.90;;;;;;6226955;22;20012;-93
2022/10/22 18:16:27;;;;;;;3.25;0.90;;;14.20;99.90;;;;;;6226751;22;20050;-93
2022/10/22 18:18:55;;;;;;;5.85;1.00;;;14.10;99.90;;;;;;6226868;22;20019;-94
2022/10/22 18:21:23;;;;;;;4.88;1.20;;;14.20;99.90;;;;;;6226670;22;20069;-93
2022/10/22 18:23:48;;;;;;;5.43;0.98;;;14.10;99.90;;;;;;6226264;22;20502;-93
2022/10/22 18:26:16;;;;;;;6.07;0.90;;;14.10;99.90;;;;;;6226608;22;20012;-93
2022/10/22 18:28:42;;;;;;;5.28;1.13;;;14.10;99.90;;;;;;6227513;22;20035;-93
2022/10/22 18:31:12;;;;;;;5.45;0.70;;;14.00;99.90;;;;;;6226756;22;20018;-93
2022/10/22 18:33:39;;;;;;;6.03;1.00;;;13.90;99.90;;;;;;6226291;22;20058;-93
2022/10/22 19:07:20;;;;;;;2.78;0.65;;;13.30;99.90;;;;;;6308438;22;20027;-94
2022/10/22 19:09:46;;;;;;;4.30;0.80;;;13.20;99.90;;;;;;6231518;22;20019;-94
2022/10/22 19:17:23;;;;;;;4.30;0.70;;;13.10;99.90;;;;;;6309301;22;20341;-93
2022/10/22 19:19:49;;;;;;;4.95;0.60;;;13.00;99.90;;;;;;6256462;22;20094;-94
2022/10/22 19:22:15;;;;;;;3.05;0.75;;;13.00;99.90;;;;;;6256696;22;20015;-94
2022/10/22 19:24:41;;;;;;;4.97;0.80;;;12.90;99.90;;;;;;6256647;22;20062;-94
2022/10/22 19:27:07;;;;;;;4.13;0.90;;;12.90;99.90;;;;;;6231151;22;20064;-93
2022/10/22 19:32:08;;;;;;;3.78;0.90;;;12.80;99.90;;;;;;6272983;22;20024;-94
2022/10/22 19:51:44;;;;;;;5.07;1.20;;;12.70;99.90;;;;;;6237180;22;20111;-93
2022/10/22 20:03:13;;;;;;;3.65;1.05;;;12.50;99.90;;;;;;6228184;22;20036;-94
2022/10/22 20:10:49;;;;;;;3.78;1.15;;;12.40;99.90;;;;;;6224958;22;20030;-94
2022/10/22 20:13:15;;;;;;;4.38;1.23;;;12.40;99.90;;;;;;6199322;22;20015;-94
2022/10/22 20:15:41;;;;;;;3.08;1.02;;;12.40;99.90;;;;;;6225469;22;20078;-93
2022/10/22 20:49:23;;;;;;;9.15;1.60;;;12.00;99.90;;;;;;6276068;22;20070;-92
2022/10/22 20:51:49;;;;;;;5.20;1.20;;;12.00;99.90;;;;;;6225360;22;20024;-92
2022/10/22 20:59:35;;;;;;;4.97;1.27;;;11.80;99.90;;;;;;6272009;22;20094;-92
2022/10/22 21:02:01;;;;;;;4.15;1.25;;;11.80;99.90;;;;;;6225623;22;20027;-94
2022/10/22 21:04:27;;;;;;;4.25;1.40;;;11.80;99.90;;;;;;6224858;22;20090;-95
2022/10/22 22:16:42;;;;;;;6.15;1.73;;;11.30;99.90;;;;;;6251039;22;20016;-95
2022/10/22 22:19:09;;;;;;;5.07;2.00;;;11.40;99.90;;;;;;6226696;22;20055;-94
2022/10/22 22:21:38;;;;;;;4.80;2.08;;;11.40;99.90;;;;;;6226698;22;20016;-95
2022/10/22 22:24:05;;;;;;;5.47;2.42;;;11.40;99.90;;;;;;6226820;22;20015;-94
2022/10/22 22:26:32;;;;;;;7.20;2.42;;;11.40;99.90;;;;;;6201597;22;20438;-94
2022/10/22 22:28:58;;;;;;;6.70;2.03;;;11.50;99.90;;;;;;6225724;22;20019;-94
2022/10/22 22:31:48;;;;;;;5.15;1.83;;;11.50;99.90;;;;;;6225755;22;20035;-93
2022/10/22 22:34:16;;;;;;;12.55;2.40;;;11.60;99.90;;;;;;6225417;22;20022;-92
2022/10/22 22:36:48;;;;;;;4.50;1.95;;;11.60;99.90;;;;;;6225908;22;20015;-92
2022/10/22 23:03:13;;;;;;;6.35;2.65;;;11.40;99.90;;;;;;6221181;22;20072;-88
2022/10/22 23:30:20;;;;;;;4.80;2.00;;;11.40;99.90;;;;;;6153068;22;20029;-96
2022/10/22 23:32:46;;;;;;;5.03;1.60;;;11.30;99.90;;;;;;6205635;23;20025;-95
2022/10/22 23:35:11;;;;;;;4.57;1.80;;;11.30;99.90;;;;;;6205427;23;20779;-94
2022/10/22 23:37:43;;;;;;;4.50;2.33;;;11.30;99.90;;;;;;6230325;23;20025;-93